PWSweather.com
Personal Weather Stations
Station Observations
WHHZ1080
Hladke ZivoticeCZ 742 47

Hladke ZivoticeCZ 742 47

Lat: 49.6818201, Lon: 17.94963610000002

Elevation: 282

Station Type: Davis Vantage Vue

http://wh1080.m-zone.cz/

High Low Average
Temperature 87.4°F30.8°C 62.0°F16.7°C 71.5°F21.9°C
Dew Point 68.7°F20.4°C 58.9°F14.9°C 63.1°F17.3°C
Winds 10.0 mph 16.1 kmh Calm Calm 1.0 mph SSE1.6 kmh SSE
Wind Gusts 16.0 mph25.7 kmh -- 3.0 mph4.8 kmh
Humidity 92% 44% 77%
Pressure 29.91 in1012.9 mb 29.82 in1009.8 mb -
Precipitation 0.17 in4.3 mm - -
Hour Temp Dew Point Humidity Winds Wind Gusts Pressure Precip Precip Rate Daily Precip Total
12:00 AM 63.9°F17.7°C 60.0°F15.6°C 87% Calm Calm -- 29.91 in1012.9 mb 0.00 in0.0 mm 0.00 in0.0 mm 0.00 in0.0 mm
12:05 AM 63.8°F17.7°C 59.9°F15.5°C 87% Calm Calm -- 29.91 in1012.9 mb 0.00 in0.0 mm 0.00 in0.0 mm 0.00 in0.0 mm
12:10 AM 63.7°F17.6°C 59.8°F15.4°C 87% Calm Calm -- 29.91 in1012.9 mb 0.00 in0.0 mm 0.00 in0.0 mm 0.00 in0.0 mm
12:15 AM 63.7°F17.6°C 59.8°F15.4°C 87% Calm Calm 1.0 mph1.6 kmh 29.91 in1012.9 mb 0.00 in0.0 mm 0.00 in0.0 mm 0.00 in0.0 mm
12:20 AM 63.6°F17.6°C 60.0°F15.6°C 88% Calm Calm 1.0 mph1.6 kmh 29.91 in1012.9 mb 0.00 in0.0 mm 0.00 in0.0 mm 0.00 in0.0 mm
12:25 AM 63.5°F17.5°C 59.9°F15.5°C 88% Calm Calm 1.0 mph1.6 kmh 29.90 in1012.5 mb 0.00 in0.0 mm 0.00 in0.0 mm 0.00 in0.0 mm
12:30 AM 63.4°F17.4°C 60.1°F15.6°C 89% Calm Calm 1.0 mph1.6 kmh 29.91 in1012.9 mb 0.00 in0.0 mm 0.00 in0.0 mm 0.00 in0.0 mm
12:35 AM 63.2°F17.3°C 59.9°F15.5°C 89% Calm Calm 1.0 mph1.6 kmh 29.91 in1012.9 mb 0.00 in0.0 mm 0.00 in0.0 mm 0.00 in0.0 mm
12:40 AM 63.1°F17.3°C 59.8°F15.4°C 89% Calm Calm -- 29.91 in1012.9 mb 0.00 in0.0 mm 0.00 in0.0 mm 0.00 in0.0 mm
12:45 AM 63.0°F17.2°C 59.7°F15.4°C 89% Calm Calm 1.0 mph1.6 kmh 29.91 in1012.9 mb 0.00 in0.0 mm 0.00 in0.0 mm 0.00 in0.0 mm
12:50 AM 63.0°F17.2°C 60.0°F15.6°C 90% Calm Calm 1.0 mph1.6 kmh 29.91 in1012.9 mb 0.00 in0.0 mm 0.00 in0.0 mm 0.00 in0.0 mm
12:55 AM 62.9°F17.2°C 59.9°F15.5°C 90% Calm Calm 1.0 mph1.6 kmh 29.91 in1012.9 mb 0.00 in0.0 mm 0.00 in0.0 mm 0.00 in0.0 mm
01:00 AM 62.9°F17.2°C 59.9°F15.5°C 90% Calm Calm -- 29.91 in1012.9 mb 0.00 in0.0 mm 0.00 in0.0 mm 0.00 in0.0 mm
01:05 AM 63.0°F17.2°C 60.0°F15.6°C 90% Calm Calm 1.0 mph1.6 kmh 29.91 in1012.9 mb 0.00 in0.0 mm 0.00 in0.0 mm 0.00 in0.0 mm
01:10 AM 63.1°F17.3°C 59.8°F15.4°C 89% Calm Calm 1.0 mph1.6 kmh 29.91 in1012.9 mb 0.00 in0.0 mm 0.00 in0.0 mm 0.00 in0.0 mm
01:15 AM 63.1°F17.3°C 59.8°F15.4°C 89% Calm Calm 1.0 mph1.6 kmh 29.91 in1012.9 mb 0.00 in0.0 mm 0.00 in0.0 mm 0.00 in0.0 mm
01:20 AM 63.2°F17.3°C 59.9°F15.5°C 89% Calm Calm 1.0 mph1.6 kmh 29.91 in1012.9 mb 0.00 in0.0 mm 0.00 in0.0 mm 0.00 in0.0 mm
01:25 AM 63.2°F17.3°C 59.9°F15.5°C 89% Calm Calm -- 29.91 in1012.9 mb 0.00 in0.0 mm 0.00 in0.0 mm 0.00 in0.0 mm
01:30 AM 63.2°F17.3°C 59.6°F15.3°C 88% Calm Calm -- 29.91 in1012.9 mb 0.00 in0.0 mm 0.00 in0.0 mm 0.00 in0.0 mm
01:35 AM 63.2°F17.3°C 59.9°F15.5°C 89% Calm Calm -- 29.91 in1012.9 mb 0.00 in0.0 mm 0.00 in0.0 mm 0.00 in0.0 mm
01:40 AM 63.3°F17.4°C 59.7°F15.4°C 88% Calm Calm 1.0 mph1.6 kmh 29.91 in1012.9 mb 0.00 in0.0 mm 0.00 in0.0 mm 0.00 in0.0 mm
01:45 AM 63.2°F17.3°C 59.6°F15.3°C 88% Calm Calm 1.0 mph1.6 kmh 29.91 in1012.9 mb 0.00 in0.0 mm 0.00 in0.0 mm 0.00 in0.0 mm
01:50 AM 63.1°F17.3°C 59.8°F15.4°C 89% Calm Calm 1.0 mph1.6 kmh 29.91 in1012.9 mb 0.00 in0.0 mm 0.00 in0.0 mm 0.00 in0.0 mm
01:55 AM 63.0°F17.2°C 59.7°F15.4°C 89% Calm Calm 1.0 mph1.6 kmh 29.91 in1012.9 mb 0.00 in0.0 mm 0.00 in0.0 mm 0.00 in0.0 mm
02:00 AM 62.9°F17.2°C 59.6°F15.3°C 89% Calm Calm -- 29.90 in1012.5 mb 0.00 in0.0 mm 0.00 in0.0 mm 0.00 in0.0 mm
02:05 AM 62.9°F17.2°C 59.6°F15.3°C 89% Calm Calm -- 29.90 in1012.5 mb 0.00 in0.0 mm 0.00 in0.0 mm 0.00 in0.0 mm
02:10 AM 62.8°F17.1°C 59.5°F15.3°C 89% Calm Calm -- 29.90 in1012.5 mb 0.00 in0.0 mm 0.00 in0.0 mm 0.00 in0.0 mm
02:15 AM 62.9°F17.2°C 59.6°F15.3°C 89% Calm Calm -- 29.90 in1012.5 mb 0.00 in0.0 mm 0.00 in0.0 mm 0.00 in0.0 mm
02:20 AM 62.9°F17.2°C 59.6°F15.3°C 89% Calm Calm -- 29.90 in1012.5 mb 0.00 in0.0 mm 0.00 in0.0 mm 0.00 in0.0 mm
02:25 AM 62.9°F17.2°C 59.6°F15.3°C 89% Calm Calm 1.0 mph1.6 kmh 29.90 in1012.5 mb 0.00 in0.0 mm 0.00 in0.0 mm 0.00 in0.0 mm
02:30 AM 63.0°F17.2°C 59.4°F15.2°C 88% Calm Calm 1.0 mph1.6 kmh 29.90 in1012.5 mb 0.00 in0.0 mm 0.00 in0.0 mm 0.00 in0.0 mm
02:35 AM 63.1°F17.3°C 59.5°F15.3°C 88% Calm Calm 1.0 mph1.6 kmh 29.90 in1012.5 mb 0.00 in0.0 mm 0.00 in0.0 mm 0.00 in0.0 mm
02:40 AM 63.1°F17.3°C 59.5°F15.3°C 88% Calm Calm 1.0 mph1.6 kmh 29.90 in1012.5 mb 0.00 in0.0 mm 0.00 in0.0 mm 0.00 in0.0 mm
02:45 AM 63.1°F17.3°C 59.5°F15.3°C 88% Calm Calm 1.0 mph1.6 kmh 29.90 in1012.5 mb 0.00 in0.0 mm 0.00 in0.0 mm 0.00 in0.0 mm
02:50 AM 63.0°F17.2°C 59.1°F15.1°C 87% Calm Calm 1.0 mph1.6 kmh 29.89 in1012.2 mb 0.00 in0.0 mm 0.00 in0.0 mm 0.00 in0.0 mm
02:55 AM 63.1°F17.3°C 59.5°F15.3°C 88% Calm Calm 1.0 mph1.6 kmh 29.89 in1012.2 mb 0.00 in0.0 mm 0.00 in0.0 mm 0.00 in0.0 mm
03:00 AM 63.2°F17.3°C 59.6°F15.3°C 88% Calm Calm 1.0 mph1.6 kmh 29.90 in1012.5 mb 0.00 in0.0 mm 0.00 in0.0 mm 0.00 in0.0 mm
03:05 AM 63.1°F17.3°C 59.5°F15.3°C 88% Calm Calm 1.0 mph1.6 kmh 29.89 in1012.2 mb 0.00 in0.0 mm 0.00 in0.0 mm 0.00 in0.0 mm
03:10 AM 63.1°F17.3°C 59.5°F15.3°C 88% Calm Calm 1.0 mph1.6 kmh 29.89 in1012.2 mb 0.00 in0.0 mm 0.00 in0.0 mm 0.00 in0.0 mm
03:15 AM 63.1°F17.3°C 59.5°F15.3°C 88% Calm Calm 1.0 mph1.6 kmh 29.90 in1012.5 mb 0.00 in0.0 mm 0.00 in0.0 mm 0.00 in0.0 mm
03:20 AM 62.9°F17.2°C 59.3°F15.2°C 88% Calm Calm -- 29.90 in1012.5 mb 0.00 in0.0 mm 0.00 in0.0 mm 0.00 in0.0 mm
03:25 AM 62.9°F17.2°C 59.3°F15.2°C 88% Calm Calm -- 29.90 in1012.5 mb 0.00 in0.0 mm 0.00 in0.0 mm 0.00 in0.0 mm
03:30 AM 62.7°F17.1°C 59.4°F15.2°C 89% Calm Calm -- 29.90 in1012.5 mb 0.00 in0.0 mm 0.00 in0.0 mm 0.00 in0.0 mm
03:35 AM 62.4°F16.9°C 59.4°F15.2°C 90% Calm Calm -- 29.90 in1012.5 mb 0.00 in0.0 mm 0.00 in0.0 mm 0.00 in0.0 mm
03:40 AM 62.3°F16.8°C 59.3°F15.2°C 90% Calm Calm -- 29.90 in1012.5 mb 0.00 in0.0 mm 0.00 in0.0 mm 0.00 in0.0 mm
03:45 AM 62.2°F16.8°C 59.2°F15.1°C 90% Calm Calm -- 29.90 in1012.5 mb 0.00 in0.0 mm 0.00 in0.0 mm 0.00 in0.0 mm
03:50 AM 62.1°F16.7°C 59.1°F15.1°C 90% Calm Calm -- 29.90 in1012.5 mb 0.00 in0.0 mm 0.00 in0.0 mm 0.00 in0.0 mm
03:55 AM 62.1°F16.7°C 59.4°F15.2°C 91% Calm Calm -- 29.90 in1012.5 mb 0.00 in0.0 mm 0.00 in0.0 mm 0.00 in0.0 mm
04:00 AM 62.0°F16.7°C 59.3°F15.2°C 91% Calm Calm -- 29.90 in1012.5 mb 0.00 in0.0 mm 0.00 in0.0 mm 0.00 in0.0 mm
04:05 AM 62.0°F16.7°C 59.3°F15.2°C 91% Calm Calm -- 29.90 in1012.5 mb 0.00 in0.0 mm 0.00 in0.0 mm 0.00 in0.0 mm
04:10 AM 62.1°F16.7°C 59.4°F15.2°C 91% Calm Calm -- 29.90 in1012.5 mb 0.00 in0.0 mm 0.00 in0.0 mm 0.00 in0.0 mm
04:15 AM 62.2°F16.8°C 59.5°F15.3°C 91% Calm Calm -- 29.90 in1012.5 mb 0.00 in0.0 mm 0.00 in0.0 mm 0.00 in0.0 mm
04:20 AM 62.2°F16.8°C 59.5°F15.3°C 91% Calm Calm -- 29.90 in1012.5 mb 0.00 in0.0 mm 0.00 in0.0 mm 0.00 in0.0 mm
04:25 AM 62.3°F16.8°C 59.6°F15.3°C 91% Calm Calm -- 29.90 in1012.5 mb 0.00 in0.0 mm 0.00 in0.0 mm 0.00 in0.0 mm
04:30 AM 62.3°F16.8°C 59.6°F15.3°C 91% Calm Calm -- 29.90 in1012.5 mb 0.00 in0.0 mm 0.00 in0.0 mm 0.00 in0.0 mm
04:35 AM 62.3°F16.8°C 59.6°F15.3°C 91% Calm Calm -- 29.90 in1012.5 mb 0.00 in0.0 mm 0.00 in0.0 mm 0.00 in0.0 mm
04:40 AM 62.4°F16.9°C 59.7°F15.4°C 91% Calm Calm -- 29.90 in1012.5 mb 0.00 in0.0 mm 0.00 in0.0 mm 0.00 in0.0 mm
04:45 AM 62.5°F16.9°C 59.8°F15.4°C 91% Calm Calm -- 29.90 in1012.5 mb 0.00 in0.0 mm 0.00 in0.0 mm 0.00 in0.0 mm
04:50 AM 62.3°F16.8°C 59.6°F15.3°C 91% Calm Calm 1.0 mph1.6 kmh 29.90 in1012.5 mb 0.00 in0.0 mm 0.00 in0.0 mm 0.00 in0.0 mm
04:55 AM 62.3°F16.8°C 59.6°F15.3°C 91% Calm Calm 1.0 mph1.6 kmh 29.90 in1012.5 mb 0.00 in0.0 mm 0.00 in0.0 mm 0.00 in0.0 mm
05:00 AM 62.2°F16.8°C 59.8°F15.4°C 92% Calm Calm -- 29.90 in1012.5 mb 0.00 in0.0 mm 0.00 in0.0 mm 0.00 in0.0 mm
05:05 AM 62.3°F16.8°C 59.9°F15.5°C 92% Calm Calm -- 29.90 in1012.5 mb 0.00 in0.0 mm 0.00 in0.0 mm 0.00 in0.0 mm
05:10 AM 62.5°F16.9°C 60.1°F15.6°C 92% Calm Calm -- 29.90 in1012.5 mb 0.00 in0.0 mm 0.00 in0.0 mm 0.00 in0.0 mm
05:15 AM 62.6°F17.0°C 60.2°F15.7°C 92% Calm Calm -- 29.90 in1012.5 mb 0.00 in0.0 mm 0.00 in0.0 mm 0.00 in0.0 mm
05:20 AM 62.6°F17.0°C 60.2°F15.7°C 92% Calm Calm -- 29.90 in1012.5 mb 0.00 in0.0 mm 0.00 in0.0 mm 0.00 in0.0 mm
05:25 AM 62.8°F17.1°C 60.4°F15.8°C 92% Calm Calm -- 29.90 in1012.5 mb 0.00 in0.0 mm 0.00 in0.0 mm 0.00 in0.0 mm
05:30 AM 62.9°F17.2°C 60.5°F15.8°C 92% Calm Calm -- 29.91 in1012.9 mb 0.00 in0.0 mm 0.00 in0.0 mm 0.00 in0.0 mm
05:35 AM 63.2°F17.3°C 60.5°F15.8°C 91% Calm Calm -- 29.91 in1012.9 mb 0.00 in0.0 mm 0.00 in0.0 mm 0.00 in0.0 mm
05:40 AM 63.4°F17.4°C 60.7°F15.9°C 91% Calm Calm -- 29.90 in1012.5 mb 0.00 in0.0 mm 0.00 in0.0 mm 0.00 in0.0 mm
05:45 AM 63.6°F17.6°C 60.6°F15.9°C 90% Calm Calm 1.0 mph1.6 kmh 29.91 in1012.9 mb 0.00 in0.0 mm 0.00 in0.0 mm 0.00 in0.0 mm
05:50 AM 63.8°F17.7°C 60.8°F16.0°C 90% Calm Calm 1.0 mph1.6 kmh 29.91 in1012.9 mb 0.00 in0.0 mm 0.00 in0.0 mm 0.00 in0.0 mm
05:55 AM 64.0°F17.8°C 61.0°F16.1°C 90% Calm Calm 1.0 mph1.6 kmh 29.90 in1012.5 mb 0.00 in0.0 mm 0.00 in0.0 mm 0.00 in0.0 mm
06:00 AM 64.4°F18.0°C 61.4°F16.3°C 90% Calm Calm -- 29.90 in1012.5 mb 0.00 in0.0 mm 0.00 in0.0 mm 0.00 in0.0 mm
06:05 AM 64.5°F18.1°C 60.9°F16.1°C 88% Calm Calm -- 29.91 in1012.9 mb 0.00 in0.0 mm 0.00 in0.0 mm 0.00 in0.0 mm
06:10 AM 64.7°F18.2°C 60.7°F15.9°C 87% Calm Calm -- 29.91 in1012.9 mb 0.00 in0.0 mm 0.00 in0.0 mm 0.00 in0.0 mm
06:15 AM 65.1°F18.4°C 61.1°F16.2°C 87% Calm Calm -- 29.91 in1012.9 mb 0.00 in0.0 mm 0.00 in0.0 mm 0.00 in0.0 mm
06:20 AM 65.4°F18.6°C 61.4°F16.3°C 87% Calm Calm -- 29.91 in1012.9 mb 0.00 in0.0 mm 0.00 in0.0 mm 0.00 in0.0 mm
06:25 AM 65.6°F18.7°C 61.3°F16.3°C 86% Calm Calm 1.0 mph1.6 kmh 29.91 in1012.9 mb 0.00 in0.0 mm 0.00 in0.0 mm 0.00 in0.0 mm
06:30 AM 65.7°F18.7°C 61.7°F16.5°C 87% Calm Calm 1.0 mph1.6 kmh 29.90 in1012.5 mb 0.00 in0.0 mm 0.00 in0.0 mm 0.00 in0.0 mm
06:35 AM 65.7°F18.7°C 61.4°F16.3°C 86% Calm Calm 1.0 mph1.6 kmh 29.91 in1012.9 mb 0.00 in0.0 mm 0.00 in0.0 mm 0.00 in0.0 mm
06:40 AM 66.3°F19.1°C 62.0°F16.7°C 86% Calm Calm 1.0 mph1.6 kmh 29.91 in1012.9 mb 0.00 in0.0 mm 0.00 in0.0 mm 0.00 in0.0 mm
06:45 AM 66.6°F19.2°C 61.9°F16.6°C 85% Calm Calm 1.0 mph1.6 kmh 29.90 in1012.5 mb 0.00 in0.0 mm 0.00 in0.0 mm 0.00 in0.0 mm
06:50 AM 66.9°F19.4°C 61.9°F16.6°C 84% Calm Calm 1.0 mph1.6 kmh 29.91 in1012.9 mb 0.00 in0.0 mm 0.00 in0.0 mm 0.00 in0.0 mm
06:55 AM 67.3°F19.6°C 62.3°F16.8°C 84% Calm Calm -- 29.90 in1012.5 mb 0.00 in0.0 mm 0.00 in0.0 mm 0.00 in0.0 mm
07:00 AM 67.4°F19.7°C 62.1°F16.7°C 83% Calm Calm -- 29.91 in1012.9 mb 0.00 in0.0 mm 0.00 in0.0 mm 0.00 in0.0 mm
07:10 AM 67.5°F19.7°C 62.1°F16.7°C 83% Calm Calm -- 29.91 in1012.9 mb 0.00 in0.0 mm 0.00 in0.0 mm 0.00 in0.0 mm
07:15 AM 67.6°F19.8°C 62.6°F17.0°C 84% Calm Calm -- 29.91 in1012.9 mb 0.00 in0.0 mm 0.00 in0.0 mm 0.00 in0.0 mm
07:20 AM 67.8°F19.9°C 62.5°F16.9°C 83% Calm Calm -- 29.91 in1012.9 mb 0.00 in0.0 mm 0.00 in0.0 mm 0.00 in0.0 mm
07:25 AM 67.8°F19.9°C 62.1°F16.7°C 82% Calm Calm -- 29.91 in1012.9 mb 0.00 in0.0 mm 0.00 in0.0 mm 0.00 in0.0 mm
07:30 AM 68.0°F20.0°C 62.3°F16.8°C 82% Calm Calm -- 29.90 in1012.5 mb 0.00 in0.0 mm 0.00 in0.0 mm 0.00 in0.0 mm
07:35 AM 68.4°F20.2°C 62.3°F16.8°C 81% Calm Calm 2.0 mph3.2 kmh 29.90 in1012.5 mb 0.00 in0.0 mm 0.00 in0.0 mm 0.00 in0.0 mm
07:40 AM 68.5°F20.3°C 62.5°F16.9°C 81% Calm Calm 2.0 mph3.2 kmh 29.90 in1012.5 mb 0.00 in0.0 mm 0.00 in0.0 mm 0.00 in0.0 mm
07:45 AM 69.1°F20.6°C 63.0°F17.2°C 81% 1.0 mph NE1.6 kmh NE 2.0 mph3.2 kmh 29.90 in1012.5 mb 0.00 in0.0 mm 0.00 in0.0 mm 0.00 in0.0 mm
07:50 AM 69.6°F20.9°C 63.2°F17.3°C 80% 1.0 mph NE1.6 kmh NE 2.0 mph3.2 kmh 29.90 in1012.5 mb 0.00 in0.0 mm 0.00 in0.0 mm 0.00 in0.0 mm
07:55 AM 69.6°F20.9°C 62.8°F17.1°C 79% 1.0 mph NE1.6 kmh NE 4.0 mph6.4 kmh 29.90 in1012.5 mb 0.00 in0.0 mm 0.00 in0.0 mm 0.00 in0.0 mm
08:00 AM 70.3°F21.3°C 63.5°F17.5°C 79% 1.0 mph NE1.6 kmh NE 4.0 mph6.4 kmh 29.90 in1012.5 mb 0.00 in0.0 mm 0.00 in0.0 mm 0.00 in0.0 mm
08:05 AM 71.1°F21.7°C 63.5°F17.5°C 77% 1.0 mph NE1.6 kmh NE 3.0 mph4.8 kmh 29.89 in1012.2 mb 0.00 in0.0 mm 0.00 in0.0 mm 0.00 in0.0 mm
08:10 AM 72.1°F22.3°C 63.8°F17.7°C 75% 1.0 mph NE1.6 kmh NE 3.0 mph4.8 kmh 29.90 in1012.5 mb 0.00 in0.0 mm 0.00 in0.0 mm 0.00 in0.0 mm
08:15 AM 72.7°F22.6°C 64.3°F17.9°C 75% Calm Calm 3.0 mph4.8 kmh 29.90 in1012.5 mb 0.00 in0.0 mm 0.00 in0.0 mm 0.00 in0.0 mm
08:20 AM 72.7°F22.6°C 64.3°F17.9°C 75% 1.0 mph E1.6 kmh E 4.0 mph6.4 kmh 29.90 in1012.5 mb 0.00 in0.0 mm 0.00 in0.0 mm 0.00 in0.0 mm
08:25 AM 72.7°F22.6°C 63.9°F17.7°C 74% 1.0 mph SE1.6 kmh SE 4.0 mph6.4 kmh 29.90 in1012.5 mb 0.00 in0.0 mm 0.00 in0.0 mm 0.00 in0.0 mm
08:30 AM 72.7°F22.6°C 63.9°F17.7°C 74% 2.0 mph SE3.2 kmh SE 4.0 mph6.4 kmh 29.90 in1012.5 mb 0.00 in0.0 mm 0.00 in0.0 mm 0.00 in0.0 mm
08:35 AM 72.0°F22.2°C 63.6°F17.6°C 75% 1.0 mph SE1.6 kmh SE 4.0 mph6.4 kmh 29.90 in1012.5 mb 0.00 in0.0 mm 0.00 in0.0 mm 0.00 in0.0 mm
08:40 AM 72.7°F22.6°C 64.7°F18.2°C 76% 1.0 mph ESE1.6 kmh ESE 3.0 mph4.8 kmh 29.90 in1012.5 mb 0.00 in0.0 mm 0.00 in0.0 mm 0.00 in0.0 mm
08:45 AM 72.9°F22.7°C 64.5°F18.1°C 75% 1.0 mph E1.6 kmh E 4.0 mph6.4 kmh 29.89 in1012.2 mb 0.00 in0.0 mm 0.00 in0.0 mm 0.00 in0.0 mm
08:50 AM 73.2°F22.9°C 64.0°F17.8°C 73% 1.0 mph ESE1.6 kmh ESE 4.0 mph6.4 kmh 29.89 in1012.2 mb 0.00 in0.0 mm 0.00 in0.0 mm 0.00 in0.0 mm
08:55 AM 73.6°F23.1°C 64.4°F18.0°C 73% 1.0 mph NE1.6 kmh NE 4.0 mph6.4 kmh 29.89 in1012.2 mb 0.00 in0.0 mm 0.00 in0.0 mm 0.00 in0.0 mm
09:00 AM 73.6°F23.1°C 64.4°F18.0°C 73% 1.0 mph NE1.6 kmh NE 4.0 mph6.4 kmh 29.89 in1012.2 mb 0.00 in0.0 mm 0.00 in0.0 mm 0.00 in0.0 mm
09:05 AM 74.1°F23.4°C 64.9°F18.3°C 73% 1.0 mph NE1.6 kmh NE 4.0 mph6.4 kmh 29.89 in1012.2 mb 0.00 in0.0 mm 0.00 in0.0 mm 0.00 in0.0 mm
09:10 AM 73.9°F23.3°C 64.7°F18.2°C 73% 1.0 mph NE1.6 kmh NE 3.0 mph4.8 kmh 29.89 in1012.2 mb 0.00 in0.0 mm 0.00 in0.0 mm 0.00 in0.0 mm
09:15 AM 75.0°F23.9°C 65.4°F18.6°C 72% 1.0 mph ENE1.6 kmh ENE 3.0 mph4.8 kmh 29.89 in1012.2 mb 0.00 in0.0 mm 0.00 in0.0 mm 0.00 in0.0 mm
09:20 AM 75.7°F24.3°C 63.6°F17.6°C 66% 1.0 mph SE1.6 kmh SE 4.0 mph6.4 kmh 29.89 in1012.2 mb 0.00 in0.0 mm 0.00 in0.0 mm 0.00 in0.0 mm
09:25 AM 76.3°F24.6°C 64.9°F18.3°C 68% 1.0 mph SE1.6 kmh SE 4.0 mph6.4 kmh 29.89 in1012.2 mb 0.00 in0.0 mm 0.00 in0.0 mm 0.00 in0.0 mm
09:30 AM 77.2°F25.1°C 66.2°F19.0°C 69% 1.0 mph SSW1.6 kmh SSW 3.0 mph4.8 kmh 29.89 in1012.2 mb 0.00 in0.0 mm 0.00 in0.0 mm 0.00 in0.0 mm
09:35 AM 77.7°F25.4°C 64.1°F17.8°C 63% 1.0 mph WSW1.6 kmh WSW 3.0 mph4.8 kmh 29.89 in1012.2 mb 0.00 in0.0 mm 0.00 in0.0 mm 0.00 in0.0 mm
09:40 AM 77.9°F25.5°C 64.3°F17.9°C 63% 1.0 mph W1.6 kmh W 2.0 mph3.2 kmh 29.89 in1012.2 mb 0.00 in0.0 mm 0.00 in0.0 mm 0.00 in0.0 mm
09:45 AM 78.4°F25.8°C 64.3°F17.9°C 62% 1.0 mph W1.6 kmh W 3.0 mph4.8 kmh 29.89 in1012.2 mb 0.00 in0.0 mm 0.00 in0.0 mm 0.00 in0.0 mm
09:50 AM 78.4°F25.8°C 64.8°F18.2°C 63% 1.0 mph SE1.6 kmh SE 3.0 mph4.8 kmh 29.89 in1012.2 mb 0.00 in0.0 mm 0.00 in0.0 mm 0.00 in0.0 mm
09:55 AM 78.1°F25.6°C 64.9°F18.3°C 64% 1.0 mph ESE1.6 kmh ESE 3.0 mph4.8 kmh 29.89 in1012.2 mb 0.00 in0.0 mm 0.00 in0.0 mm 0.00 in0.0 mm
10:00 AM 77.7°F25.4°C 65.0°F18.3°C 65% 1.0 mph ESE1.6 kmh ESE 3.0 mph4.8 kmh 29.88 in1011.9 mb 0.00 in0.0 mm 0.00 in0.0 mm 0.00 in0.0 mm
10:05 AM 78.6°F25.9°C 66.3°F19.1°C 66% 1.0 mph E1.6 kmh E 3.0 mph4.8 kmh 29.88 in1011.9 mb 0.00 in0.0 mm 0.00 in0.0 mm 0.00 in0.0 mm
10:10 AM 79.9°F26.6°C 64.8°F18.2°C 60% 1.0 mph ENE1.6 kmh ENE 3.0 mph4.8 kmh 29.88 in1011.9 mb 0.00 in0.0 mm 0.00 in0.0 mm 0.00 in0.0 mm
10:15 AM 80.2°F26.8°C 65.6°F18.7°C 61% 1.0 mph SSW1.6 kmh SSW 3.0 mph4.8 kmh 29.88 in1011.9 mb 0.00 in0.0 mm 0.00 in0.0 mm 0.00 in0.0 mm
10:20 AM 80.2°F26.8°C 65.6°F18.7°C 61% 1.0 mph S1.6 kmh S 2.0 mph3.2 kmh 29.88 in1011.9 mb 0.00 in0.0 mm 0.00 in0.0 mm 0.00 in0.0 mm
10:25 AM 81.0°F27.2°C 66.2°F19.0°C 61% 1.0 mph S1.6 kmh S 3.0 mph4.8 kmh 29.88 in1011.9 mb 0.00 in0.0 mm 0.00 in0.0 mm 0.00 in0.0 mm
10:30 AM 81.3°F27.4°C 65.1°F18.4°C 58% 1.0 mph WSW1.6 kmh WSW 4.0 mph6.4 kmh 29.88 in1011.9 mb 0.00 in0.0 mm 0.00 in0.0 mm 0.00 in0.0 mm
10:35 AM 81.7°F27.6°C 66.0°F18.9°C 59% 1.0 mph SW1.6 kmh SW 4.0 mph6.4 kmh 29.87 in1011.5 mb 0.00 in0.0 mm 0.00 in0.0 mm 0.00 in0.0 mm
10:40 AM 81.9°F27.7°C 65.6°F18.7°C 58% 1.0 mph SSE1.6 kmh SSE 4.0 mph6.4 kmh 29.88 in1011.9 mb 0.00 in0.0 mm 0.00 in0.0 mm 0.00 in0.0 mm
10:45 AM 82.2°F27.9°C 64.4°F18.0°C 55% 1.0 mph S1.6 kmh S 5.0 mph8.0 kmh 29.88 in1011.9 mb 0.00 in0.0 mm 0.00 in0.0 mm 0.00 in0.0 mm
10:50 AM 82.8°F28.2°C 64.9°F18.3°C 55% 1.0 mph S1.6 kmh S 5.0 mph8.0 kmh 29.87 in1011.5 mb 0.00 in0.0 mm 0.00 in0.0 mm 0.00 in0.0 mm
10:55 AM 83.7°F28.7°C 65.3°F18.5°C 54% 1.0 mph S1.6 kmh S 4.0 mph6.4 kmh 29.87 in1011.5 mb 0.00 in0.0 mm 0.00 in0.0 mm 0.00 in0.0 mm
11:00 AM 84.4°F29.1°C 63.1°F17.3°C 49% 1.0 mph S1.6 kmh S 3.0 mph4.8 kmh 29.87 in1011.5 mb 0.00 in0.0 mm 0.00 in0.0 mm 0.00 in0.0 mm
11:05 AM 84.2°F29.0°C 62.4°F16.9°C 48% 1.0 mph SSW1.6 kmh SSW 3.0 mph4.8 kmh 29.87 in1011.5 mb 0.00 in0.0 mm 0.00 in0.0 mm 0.00 in0.0 mm
11:10 AM 83.7°F28.7°C 62.5°F16.9°C 49% 1.0 mph S1.6 kmh S 3.0 mph4.8 kmh 29.87 in1011.5 mb 0.00 in0.0 mm 0.00 in0.0 mm 0.00 in0.0 mm
11:15 AM 84.0°F28.9°C 65.0°F18.3°C 53% 1.0 mph SE1.6 kmh SE 5.0 mph8.0 kmh 29.87 in1011.5 mb 0.00 in0.0 mm 0.00 in0.0 mm 0.00 in0.0 mm
11:20 AM 84.6°F29.2°C 61.5°F16.4°C 46% 1.0 mph S1.6 kmh S 5.0 mph8.0 kmh 29.87 in1011.5 mb 0.00 in0.0 mm 0.00 in0.0 mm 0.00 in0.0 mm
11:25 AM 84.2°F29.0°C 63.0°F17.2°C 49% 1.0 mph S1.6 kmh S 4.0 mph6.4 kmh 29.86 in1011.2 mb 0.00 in0.0 mm 0.00 in0.0 mm 0.00 in0.0 mm
11:30 AM 84.4°F29.1°C 61.9°F16.6°C 47% 1.0 mph SE1.6 kmh SE 4.0 mph6.4 kmh 29.86 in1011.2 mb 0.00 in0.0 mm 0.00 in0.0 mm 0.00 in0.0 mm
11:35 AM 84.9°F29.4°C 60.6°F15.9°C 44% 1.0 mph SSE1.6 kmh SSE 4.0 mph6.4 kmh 29.86 in1011.2 mb 0.00 in0.0 mm 0.00 in0.0 mm 0.00 in0.0 mm
11:40 AM 84.9°F29.4°C 61.8°F16.6°C 46% 1.0 mph S1.6 kmh S 4.0 mph6.4 kmh 29.86 in1011.2 mb 0.00 in0.0 mm 0.00 in0.0 mm 0.00 in0.0 mm
11:45 AM 84.7°F29.3°C 61.7°F16.5°C 46% 1.0 mph S1.6 kmh S 4.0 mph6.4 kmh 29.86 in1011.2 mb 0.00 in0.0 mm 0.00 in0.0 mm 0.00 in0.0 mm
11:50 AM 85.5°F29.7°C 63.5°F17.5°C 48% 1.0 mph S1.6 kmh S 4.0 mph6.4 kmh 29.86 in1011.2 mb 0.00 in0.0 mm 0.00 in0.0 mm 0.00 in0.0 mm
11:55 AM 86.2°F30.1°C 63.0°F17.2°C 46% 1.0 mph SW1.6 kmh SW 3.0 mph4.8 kmh 29.86 in1011.2 mb 0.00 in0.0 mm 0.00 in0.0 mm 0.00 in0.0 mm
12:00 PM 86.5°F30.3°C 63.9°F17.7°C 47% 1.0 mph SSW1.6 kmh SSW 4.0 mph6.4 kmh 29.86 in1011.2 mb 0.00 in0.0 mm 0.00 in0.0 mm 0.00 in0.0 mm
12:05 PM 86.9°F30.5°C 64.8°F18.2°C 48% 1.0 mph S1.6 kmh S 6.0 mph9.7 kmh 29.85 in1010.8 mb 0.00 in0.0 mm 0.00 in0.0 mm 0.00 in0.0 mm
12:10 PM 85.8°F29.9°C 63.9°F17.7°C 48% 1.0 mph SSE1.6 kmh SSE 6.0 mph9.7 kmh 29.85 in1010.8 mb 0.00 in0.0 mm 0.00 in0.0 mm 0.00 in0.0 mm
12:15 PM 85.6°F29.8°C 64.3°F17.9°C 49% 2.0 mph SSE3.2 kmh SSE 14.0 mph22.5 kmh 29.85 in1010.8 mb 0.00 in0.0 mm 0.00 in0.0 mm 0.00 in0.0 mm
12:20 PM 86.4°F30.2°C 64.4°F18.0°C 48% 2.0 mph SSE3.2 kmh SSE 14.0 mph22.5 kmh 29.85 in1010.8 mb 0.00 in0.0 mm 0.00 in0.0 mm 0.00 in0.0 mm
12:25 PM 86.5°F30.3°C 64.5°F18.1°C 48% 2.0 mph S3.2 kmh S 6.0 mph9.7 kmh 29.85 in1010.8 mb 0.00 in0.0 mm 0.00 in0.0 mm 0.00 in0.0 mm
12:30 PM 85.8°F29.9°C 64.5°F18.1°C 49% 2.0 mph SSW3.2 kmh SSW 7.0 mph11.3 kmh 29.85 in1010.8 mb 0.00 in0.0 mm 0.00 in0.0 mm 0.00 in0.0 mm
12:35 PM 85.8°F29.9°C 63.3°F17.4°C 47% 2.0 mph S3.2 kmh S 7.0 mph11.3 kmh 29.85 in1010.8 mb 0.00 in0.0 mm 0.00 in0.0 mm 0.00 in0.0 mm
12:40 PM 85.6°F29.8°C 64.3°F17.9°C 49% 2.0 mph S3.2 kmh S 5.0 mph8.0 kmh 29.85 in1010.8 mb 0.00 in0.0 mm 0.00 in0.0 mm 0.00 in0.0 mm
12:45 PM 85.8°F29.9°C 66.7°F19.3°C 53% 2.0 mph S3.2 kmh S 5.0 mph8.0 kmh 29.85 in1010.8 mb 0.00 in0.0 mm 0.00 in0.0 mm 0.00 in0.0 mm
12:50 PM 85.3°F29.6°C 65.7°F18.7°C 52% 2.0 mph SSW3.2 kmh SSW 8.0 mph12.9 kmh 29.85 in1010.8 mb 0.00 in0.0 mm 0.00 in0.0 mm 0.00 in0.0 mm
12:55 PM 84.7°F29.3°C 65.2°F18.4°C 52% 3.0 mph SSW4.8 kmh SSW 8.0 mph12.9 kmh 29.85 in1010.8 mb 0.00 in0.0 mm 0.00 in0.0 mm 0.00 in0.0 mm
01:00 PM 85.1°F29.5°C 65.5°F18.6°C 52% 2.0 mph SSW3.2 kmh SSW 7.0 mph11.3 kmh 29.85 in1010.8 mb 0.00 in0.0 mm 0.00 in0.0 mm 0.00 in0.0 mm
01:05 PM 84.7°F29.3°C 65.7°F18.7°C 53% 2.0 mph SSE3.2 kmh SSE 8.0 mph12.9 kmh 29.85 in1010.8 mb 0.00 in0.0 mm 0.00 in0.0 mm 0.00 in0.0 mm
01:10 PM 84.6°F29.2°C 63.9°F17.7°C 50% 3.0 mph SE4.8 kmh SE 8.0 mph12.9 kmh 29.85 in1010.8 mb 0.00 in0.0 mm 0.00 in0.0 mm 0.00 in0.0 mm
01:15 PM 84.9°F29.4°C 65.3°F18.5°C 52% 3.0 mph SE4.8 kmh SE 6.0 mph9.7 kmh 29.85 in1010.8 mb 0.00 in0.0 mm 0.00 in0.0 mm 0.00 in0.0 mm
01:20 PM 86.2°F30.1°C 65.4°F18.6°C 50% 3.0 mph SSE4.8 kmh SSE 5.0 mph8.0 kmh 29.84 in1010.5 mb 0.00 in0.0 mm 0.00 in0.0 mm 0.00 in0.0 mm
01:25 PM 86.7°F30.4°C 64.1°F17.8°C 47% 2.0 mph S3.2 kmh S 8.0 mph12.9 kmh 29.84 in1010.5 mb 0.00 in0.0 mm 0.00 in0.0 mm 0.00 in0.0 mm
01:30 PM 86.7°F30.4°C 64.7°F18.2°C 48% 2.0 mph S3.2 kmh S 9.0 mph14.5 kmh 29.84 in1010.5 mb 0.00 in0.0 mm 0.00 in0.0 mm 0.00 in0.0 mm
01:35 PM 87.1°F30.6°C 65.0°F18.3°C 48% 3.0 mph S4.8 kmh S 9.0 mph14.5 kmh 29.84 in1010.5 mb 0.00 in0.0 mm 0.00 in0.0 mm 0.00 in0.0 mm
01:40 PM 86.2°F30.1°C 64.2°F17.9°C 48% 4.0 mph SE6.4 kmh SE 8.0 mph12.9 kmh 29.84 in1010.5 mb 0.00 in0.0 mm 0.00 in0.0 mm 0.00 in0.0 mm
01:45 PM 87.1°F30.6°C 66.2°F19.0°C 50% 3.0 mph SE4.8 kmh SE 8.0 mph12.9 kmh 29.83 in1010.2 mb 0.00 in0.0 mm 0.00 in0.0 mm 0.00 in0.0 mm
01:50 PM 87.4°F30.8°C 65.9°F18.8°C 49% 2.0 mph SSE3.2 kmh SSE 9.0 mph14.5 kmh 29.83 in1010.2 mb 0.00 in0.0 mm 0.00 in0.0 mm 0.00 in0.0 mm
01:55 PM 86.0°F30.0°C 68.5°F20.3°C 56% 3.0 mph SE4.8 kmh SE 10.0 mph16.1 kmh 29.83 in1010.2 mb 0.00 in0.0 mm 0.00 in0.0 mm 0.00 in0.0 mm
02:00 PM 84.7°F29.3°C 67.8°F19.9°C 57% 4.0 mph SE6.4 kmh SE 10.0 mph16.1 kmh 29.83 in1010.2 mb 0.00 in0.0 mm 0.00 in0.0 mm 0.00 in0.0 mm
02:05 PM 84.4°F29.1°C 67.0°F19.4°C 56% 5.0 mph SE8.0 kmh SE 10.0 mph16.1 kmh 29.83 in1010.2 mb 0.00 in0.0 mm 0.00 in0.0 mm 0.00 in0.0 mm
02:10 PM 83.7°F28.7°C 66.8°F19.3°C 57% 4.0 mph ESE6.4 kmh ESE 7.0 mph11.3 kmh 29.82 in1009.8 mb 0.00 in0.0 mm 0.00 in0.0 mm 0.00 in0.0 mm
02:15 PM 83.3°F28.5°C 66.5°F19.2°C 57% 3.0 mph E4.8 kmh E 7.0 mph11.3 kmh 29.83 in1010.2 mb 0.00 in0.0 mm 0.00 in0.0 mm 0.00 in0.0 mm
02:20 PM 83.3°F28.5°C 67.5°F19.7°C 59% 3.0 mph ESE4.8 kmh ESE 7.0 mph11.3 kmh 29.83 in1010.2 mb 0.00 in0.0 mm 0.00 in0.0 mm 0.00 in0.0 mm
02:25 PM 82.8°F28.2°C 67.0°F19.4°C 59% 4.0 mph E6.4 kmh E 7.0 mph11.3 kmh 29.83 in1010.2 mb 0.00 in0.0 mm 0.00 in0.0 mm 0.00 in0.0 mm
02:30 PM 82.9°F28.3°C 67.1°F19.5°C 59% 4.0 mph E6.4 kmh E 7.0 mph11.3 kmh 29.83 in1010.2 mb 0.00 in0.0 mm 0.00 in0.0 mm 0.00 in0.0 mm
02:35 PM 83.1°F28.4°C 66.8°F19.3°C 58% 3.0 mph E4.8 kmh E 4.0 mph6.4 kmh 29.83 in1010.2 mb 0.00 in0.0 mm 0.00 in0.0 mm 0.00 in0.0 mm
02:40 PM 83.7°F28.7°C 67.3°F19.6°C 58% 2.0 mph E3.2 kmh E 4.0 mph6.4 kmh 29.83 in1010.2 mb 0.00 in0.0 mm 0.00 in0.0 mm 0.00 in0.0 mm
02:45 PM 84.4°F29.1°C 68.5°F20.3°C 59% 1.0 mph SSE1.6 kmh SSE 2.0 mph3.2 kmh 29.83 in1010.2 mb 0.00 in0.0 mm 0.00 in0.0 mm 0.00 in0.0 mm
02:50 PM 84.0°F28.9°C 68.1°F20.1°C 59% Calm Calm 4.0 mph6.4 kmh 29.82 in1009.8 mb 0.00 in0.0 mm 0.00 in0.0 mm 0.00 in0.0 mm
02:55 PM 83.8°F28.8°C 67.5°F19.7°C 58% Calm Calm 4.0 mph6.4 kmh 29.83 in1010.2 mb 0.00 in0.0 mm 0.00 in0.0 mm 0.00 in0.0 mm
03:00 PM 83.7°F28.7°C 67.3°F19.6°C 58% 1.0 mph E1.6 kmh E 2.0 mph3.2 kmh 29.82 in1009.8 mb 0.00 in0.0 mm 0.00 in0.0 mm 0.00 in0.0 mm
03:05 PM 83.8°F28.8°C 64.3°F17.9°C 52% 1.0 mph SE1.6 kmh SE 5.0 mph8.0 kmh 29.82 in1009.8 mb 0.00 in0.0 mm 0.00 in0.0 mm 0.00 in0.0 mm
03:10 PM 84.7°F29.3°C 67.8°F19.9°C 57% 1.0 mph SE1.6 kmh SE 5.0 mph8.0 kmh 29.82 in1009.8 mb 0.00 in0.0 mm 0.00 in0.0 mm 0.00 in0.0 mm
03:15 PM 85.6°F29.8°C 68.7°F20.4°C 57% 1.0 mph E1.6 kmh E 3.0 mph4.8 kmh 29.82 in1009.8 mb 0.00 in0.0 mm 0.00 in0.0 mm 0.00 in0.0 mm
03:20 PM 84.7°F29.3°C 67.8°F19.9°C 57% Calm Calm 4.0 mph6.4 kmh 29.82 in1009.8 mb 0.00 in0.0 mm 0.00 in0.0 mm 0.00 in0.0 mm
03:25 PM 84.4°F29.1°C 68.0°F20.0°C 58% Calm Calm 4.0 mph6.4 kmh 29.83 in1010.2 mb 0.00 in0.0 mm 0.00 in0.0 mm 0.00 in0.0 mm
03:30 PM 83.8°F28.8°C 68.0°F20.0°C 59% 1.0 mph ESE1.6 kmh ESE 11.0 mph17.7 kmh 29.83 in1010.2 mb 0.00 in0.0 mm 0.00 in0.0 mm 0.00 in0.0 mm
03:35 PM 81.3°F27.4°C 64.1°F17.8°C 56% 3.0 mph SE4.8 kmh SE 16.0 mph25.7 kmh 29.83 in1010.2 mb 0.00 in0.0 mm 0.00 in0.0 mm 0.00 in0.0 mm
03:40 PM 79.2°F26.2°C 61.1°F16.2°C 54% 6.0 mph SE9.7 kmh SE 16.0 mph25.7 kmh 29.84 in1010.5 mb 0.00 in0.0 mm 0.00 in0.0 mm 0.00 in0.0 mm
03:45 PM 77.9°F25.5°C 60.9°F16.1°C 56% 9.0 mph SE14.5 kmh SE 16.0 mph25.7 kmh 29.83 in1010.2 mb 0.00 in0.0 mm 0.00 in0.0 mm 0.00 in0.0 mm
03:50 PM 77.7°F25.4°C 60.3°F15.7°C 55% 10.0 mph SE16.1 kmh SE 16.0 mph25.7 kmh 29.83 in1010.2 mb 0.00 in0.0 mm 0.00 in0.0 mm 0.00 in0.0 mm
03:55 PM 77.7°F25.4°C 59.2°F15.1°C 53% 8.0 mph SE12.9 kmh SE 13.0 mph20.9 kmh 29.83 in1010.2 mb 0.00 in0.0 mm 0.00 in0.0 mm 0.00 in0.0 mm
04:00 PM 77.4°F25.2°C 58.9°F14.9°C 53% 7.0 mph SE11.3 kmh SE 12.0 mph19.3 kmh 29.82 in1009.8 mb 0.00 in0.0 mm 0.00 in0.0 mm 0.00 in0.0 mm
04:05 PM 77.4°F25.2°C 59.4°F15.2°C 54% 7.0 mph SE11.3 kmh SE 11.0 mph17.7 kmh 29.82 in1009.8 mb 0.00 in0.0 mm 0.00 in0.0 mm 0.00 in0.0 mm
04:10 PM 77.5°F25.3°C 60.1°F15.6°C 55% 5.0 mph SE8.0 kmh SE 6.0 mph9.7 kmh 29.82 in1009.8 mb 0.00 in0.0 mm 0.00 in0.0 mm 0.00 in0.0 mm
04:15 PM 77.7°F25.4°C 59.2°F15.1°C 53% 3.0 mph SE4.8 kmh SE 5.0 mph8.0 kmh 29.83 in1010.2 mb 0.00 in0.0 mm 0.00 in0.0 mm 0.00 in0.0 mm
04:20 PM 77.7°F25.4°C 61.8°F16.6°C 58% 1.0 mph N1.6 kmh N 1.0 mph1.6 kmh 29.84 in1010.5 mb 0.00 in0.0 mm 0.00 in0.0 mm 0.00 in0.0 mm
04:25 PM 75.9°F24.4°C 63.3°F17.4°C 65% Calm Calm 8.0 mph12.9 kmh 29.85 in1010.8 mb 0.05 in1.3 mm 0.60 in15.2 mm 0.05 in1.3 mm
04:30 PM 73.6°F23.1°C 63.6°F17.6°C 71% 1.0 mph SW1.6 kmh SW 9.0 mph14.5 kmh 29.85 in1010.8 mb 0.08 in2.0 mm 0.36 in9.1 mm 0.08 in2.0 mm
04:35 PM 72.1°F22.3°C 63.4°F17.4°C 74% 2.0 mph SSW3.2 kmh SSW 9.0 mph14.5 kmh 29.84 in1010.5 mb 0.10 in2.5 mm 0.24 in6.1 mm 0.10 in2.5 mm
04:45 PM 70.5°F21.4°C 63.7°F17.6°C 79% 1.0 mph WSW1.6 kmh WSW 6.0 mph9.7 kmh 29.84 in1010.5 mb 0.12 in3.0 mm 0.12 in3.0 mm 0.12 in3.0 mm
04:50 PM 70.0°F21.1°C 63.9°F17.7°C 81% 2.0 mph W3.2 kmh W 6.0 mph9.7 kmh 29.84 in1010.5 mb 0.14 in3.6 mm 0.24 in6.1 mm 0.14 in3.6 mm
04:55 PM 69.4°F20.8°C 64.0°F17.8°C 83% 2.0 mph W3.2 kmh W 4.0 mph6.4 kmh 29.84 in1010.5 mb 0.17 in4.3 mm 0.36 in9.1 mm 0.17 in4.3 mm
05:00 PM 69.6°F20.9°C 64.9°F18.3°C 85% 1.0 mph WSW1.6 kmh WSW 1.0 mph1.6 kmh 29.84 in1010.5 mb 0.17 in4.3 mm 0.00 in0.0 mm 0.17 in4.3 mm
05:05 PM 69.6°F20.9°C 64.9°F18.3°C 85% 1.0 mph NE1.6 kmh NE 4.0 mph6.4 kmh 29.84 in1010.5 mb 0.17 in4.3 mm 0.00 in0.0 mm 0.17 in4.3 mm
05:10 PM 69.4°F20.8°C 64.4°F18.0°C 84% 1.0 mph NE1.6 kmh NE 4.0 mph6.4 kmh 29.84 in1010.5 mb 0.17 in4.3 mm 0.00 in0.0 mm 0.17 in4.3 mm
05:15 PM 69.6°F20.9°C 64.9°F18.3°C 85% 1.0 mph NNW1.6 kmh NNW 4.0 mph6.4 kmh 29.84 in1010.5 mb 0.17 in4.3 mm 0.00 in0.0 mm 0.17 in4.3 mm
05:20 PM 69.4°F20.8°C 64.7°F18.2°C 85% 1.0 mph NW1.6 kmh NW 4.0 mph6.4 kmh 29.84 in1010.5 mb 0.17 in4.3 mm 0.00 in0.0 mm 0.17 in4.3 mm
05:25 PM 69.3°F20.7°C 64.6°F18.1°C 85% 1.0 mph NW1.6 kmh NW 4.0 mph6.4 kmh 29.83 in1010.2 mb 0.13 in3.3 mm 0.00 in0.0 mm 0.17 in4.3 mm
05:30 PM 69.4°F20.8°C 65.1°F18.4°C 86% 1.0 mph NW1.6 kmh NW 2.0 mph3.2 kmh 29.83 in1010.2 mb 0.09 in2.3 mm 0.00 in0.0 mm 0.17 in4.3 mm
05:35 PM 69.6°F20.9°C 64.6°F18.1°C 84% Calm Calm 1.0 mph1.6 kmh 29.84 in1010.5 mb 0.07 in1.8 mm 0.00 in0.0 mm 0.17 in4.3 mm
05:40 PM 69.6°F20.9°C 64.9°F18.3°C 85% Calm Calm -- 29.83 in1010.2 mb 0.06 in1.5 mm 0.00 in0.0 mm 0.17 in4.3 mm
05:45 PM 70.0°F21.1°C 65.3°F18.5°C 85% Calm Calm 2.0 mph3.2 kmh 29.83 in1010.2 mb 0.06 in1.5 mm 0.00 in0.0 mm 0.17 in4.3 mm
05:50 PM 70.0°F21.1°C 65.3°F18.5°C 85% Calm Calm 2.0 mph3.2 kmh 29.83 in1010.2 mb 0.03 in0.8 mm 0.00 in0.0 mm 0.17 in4.3 mm
05:55 PM 70.2°F21.2°C 65.8°F18.8°C 86% Calm Calm 1.0 mph1.6 kmh 29.83 in1010.2 mb 0.01 in0.3 mm 0.00 in0.0 mm 0.17 in4.3 mm
06:00 PM 70.5°F21.4°C 66.5°F19.2°C 87% Calm Calm 1.0 mph1.6 kmh 29.83 in1010.2 mb 0.00 in0.0 mm 0.00 in0.0 mm 0.17 in4.3 mm
06:05 PM 70.9°F21.6°C 66.8°F19.3°C 87% Calm Calm 1.0 mph1.6 kmh 29.83 in1010.2 mb 0.00 in0.0 mm 0.00 in0.0 mm 0.17 in4.3 mm
06:10 PM 70.5°F21.4°C 66.1°F18.9°C 86% Calm Calm 2.0 mph3.2 kmh 29.84 in1010.5 mb 0.00 in0.0 mm 0.00 in0.0 mm 0.17 in4.3 mm
06:15 PM 70.3°F21.3°C 66.3°F19.1°C 87% Calm Calm 3.0 mph4.8 kmh 29.84 in1010.5 mb 0.00 in0.0 mm 0.00 in0.0 mm 0.17 in4.3 mm
06:20 PM 70.3°F21.3°C 66.3°F19.1°C 87% 1.0 mph NW1.6 kmh NW 3.0 mph4.8 kmh 29.84 in1010.5 mb 0.00 in0.0 mm 0.00 in0.0 mm 0.17 in4.3 mm
06:25 PM 70.2°F21.2°C 66.1°F18.9°C 87% 1.0 mph NW1.6 kmh NW 2.0 mph3.2 kmh 29.83 in1010.2 mb 0.00 in0.0 mm 0.00 in0.0 mm 0.17 in4.3 mm
06:30 PM 70.2°F21.2°C 66.1°F18.9°C 87% 1.0 mph NW1.6 kmh NW 1.0 mph1.6 kmh 29.84 in1010.5 mb 0.00 in0.0 mm 0.00 in0.0 mm 0.17 in4.3 mm
06:35 PM 70.2°F21.2°C 66.1°F18.9°C 87% Calm Calm 1.0 mph1.6 kmh 29.84 in1010.5 mb 0.00 in0.0 mm 0.00 in0.0 mm 0.17 in4.3 mm
06:40 PM 70.3°F21.3°C 66.3°F19.1°C 87% Calm Calm 1.0 mph1.6 kmh 29.84 in1010.5 mb 0.00 in0.0 mm 0.00 in0.0 mm 0.17 in4.3 mm
06:45 PM 70.2°F21.2°C 64.4°F18.0°C 82% Calm Calm 2.0 mph3.2 kmh 29.83 in1010.2 mb 0.00 in0.0 mm 0.00 in0.0 mm 0.17 in4.3 mm
06:50 PM 70.3°F21.3°C 64.2°F17.9°C 81% Calm Calm 4.0 mph6.4 kmh 29.83 in1010.2 mb 0.00 in0.0 mm 0.00 in0.0 mm 0.17 in4.3 mm
06:55 PM 70.3°F21.3°C 64.6°F18.1°C 82% 1.0 mph SSW1.6 kmh SSW 4.0 mph6.4 kmh 29.83 in1010.2 mb 0.00 in0.0 mm 0.00 in0.0 mm 0.17 in4.3 mm
07:00 PM 70.2°F21.2°C 64.4°F18.0°C 82% 1.0 mph S1.6 kmh S 4.0 mph6.4 kmh 29.83 in1010.2 mb 0.00 in0.0 mm 0.00 in0.0 mm 0.17 in4.3 mm
07:05 PM 70.0°F21.1°C 64.6°F18.1°C 83% 1.0 mph S1.6 kmh S 3.0 mph4.8 kmh 29.83 in1010.2 mb 0.00 in0.0 mm 0.00 in0.0 mm 0.17 in4.3 mm
07:10 PM 69.6°F20.9°C 64.9°F18.3°C 85% 1.0 mph SSW1.6 kmh SSW 2.0 mph3.2 kmh 29.83 in1010.2 mb 0.00 in0.0 mm 0.00 in0.0 mm 0.17 in4.3 mm
07:15 PM 69.4°F20.8°C 65.1°F18.4°C 86% Calm Calm 2.0 mph3.2 kmh 29.83 in1010.2 mb 0.00 in0.0 mm 0.00 in0.0 mm 0.17 in4.3 mm
07:20 PM 69.1°F20.6°C 64.7°F18.2°C 86% Calm Calm 2.0 mph3.2 kmh 29.83 in1010.2 mb 0.00 in0.0 mm 0.00 in0.0 mm 0.17 in4.3 mm
07:25 PM 69.1°F20.6°C 64.7°F18.2°C 86% Calm Calm 2.0 mph3.2 kmh 29.83 in1010.2 mb 0.00 in0.0 mm 0.00 in0.0 mm 0.17 in4.3 mm
07:30 PM 69.1°F20.6°C 64.7°F18.2°C 86% 1.0 mph SSW1.6 kmh SSW 2.0 mph3.2 kmh 29.83 in1010.2 mb 0.00 in0.0 mm 0.00 in0.0 mm 0.17 in4.3 mm
07:35 PM 68.9°F20.5°C 64.5°F18.1°C 86% Calm Calm 2.0 mph3.2 kmh 29.83 in1010.2 mb 0.00 in0.0 mm 0.00 in0.0 mm 0.17 in4.3 mm
07:40 PM 68.9°F20.5°C 64.5°F18.1°C 86% Calm Calm 1.0 mph1.6 kmh 29.83 in1010.2 mb 0.00 in0.0 mm 0.00 in0.0 mm 0.17 in4.3 mm
07:45 PM 68.9°F20.5°C 64.5°F18.1°C 86% Calm Calm -- 29.84 in1010.5 mb 0.00 in0.0 mm 0.00 in0.0 mm 0.17 in4.3 mm
07:50 PM 68.7°F20.4°C 64.7°F18.2°C 87% Calm Calm -- 29.84 in1010.5 mb 0.00 in0.0 mm 0.00 in0.0 mm 0.17 in4.3 mm
07:55 PM 68.5°F20.3°C 64.5°F18.1°C 87% Calm Calm -- 29.83 in1010.2 mb 0.00 in0.0 mm 0.00 in0.0 mm 0.17 in4.3 mm
08:00 PM 68.5°F20.3°C 64.5°F18.1°C 87% Calm Calm -- 29.83 in1010.2 mb 0.00 in0.0 mm 0.00 in0.0 mm 0.17 in4.3 mm
08:05 PM 68.4°F20.2°C 64.3°F17.9°C 87% Calm Calm -- 29.83 in1010.2 mb 0.00 in0.0 mm 0.00 in0.0 mm 0.17 in4.3 mm
08:10 PM 68.4°F20.2°C 64.7°F18.2°C 88% Calm Calm 1.0 mph1.6 kmh 29.84 in1010.5 mb 0.00 in0.0 mm 0.00 in0.0 mm 0.17 in4.3 mm
08:15 PM 68.4°F20.2°C 64.7°F18.2°C 88% Calm Calm 1.0 mph1.6 kmh 29.84 in1010.5 mb 0.00 in0.0 mm 0.00 in0.0 mm 0.17 in4.3 mm
08:20 PM 68.2°F20.1°C 64.5°F18.1°C 88% Calm Calm 1.0 mph1.6 kmh 29.84 in1010.5 mb 0.00 in0.0 mm 0.00 in0.0 mm 0.17 in4.3 mm
08:25 PM 68.0°F20.0°C 64.6°F18.1°C 89% Calm Calm 1.0 mph1.6 kmh 29.84 in1010.5 mb 0.00 in0.0 mm 0.00 in0.0 mm 0.17 in4.3 mm
08:30 PM 67.8°F19.9°C 64.5°F18.1°C 89% Calm Calm 1.0 mph1.6 kmh 29.83 in1010.2 mb 0.00 in0.0 mm 0.00 in0.0 mm 0.17 in4.3 mm
08:35 PM 67.6°F19.8°C 64.3°F17.9°C 89% Calm Calm 1.0 mph1.6 kmh 29.83 in1010.2 mb 0.00 in0.0 mm 0.00 in0.0 mm 0.17 in4.3 mm
08:40 PM 67.6°F19.8°C 64.3°F17.9°C 89% Calm Calm 1.0 mph1.6 kmh 29.83 in1010.2 mb 0.00 in0.0 mm 0.00 in0.0 mm 0.17 in4.3 mm
08:45 PM 67.5°F19.7°C 64.1°F17.8°C 89% Calm Calm -- 29.84 in1010.5 mb 0.00 in0.0 mm 0.00 in0.0 mm 0.17 in4.3 mm
08:50 PM 67.3°F19.6°C 64.2°F17.9°C 90% Calm Calm -- 29.84 in1010.5 mb 0.00 in0.0 mm 0.00 in0.0 mm 0.17 in4.3 mm
08:55 PM 67.3°F19.6°C 64.6°F18.1°C 91% Calm Calm -- 29.84 in1010.5 mb 0.00 in0.0 mm 0.00 in0.0 mm 0.17 in4.3 mm
09:00 PM 67.3°F19.6°C 64.6°F18.1°C 91% Calm Calm -- 29.84 in1010.5 mb 0.00 in0.0 mm 0.00 in0.0 mm 0.17 in4.3 mm
09:05 PM 66.9°F19.4°C 64.2°F17.9°C 91% Calm Calm -- 29.83 in1010.2 mb 0.00 in0.0 mm 0.00 in0.0 mm 0.17 in4.3 mm
09:10 PM 66.9°F19.4°C 64.2°F17.9°C 91% Calm Calm -- 29.83 in1010.2 mb 0.00 in0.0 mm 0.00 in0.0 mm 0.17 in4.3 mm
09:15 PM 66.9°F19.4°C 64.2°F17.9°C 91% Calm Calm -- 29.83 in1010.2 mb 0.00 in0.0 mm 0.00 in0.0 mm 0.17 in4.3 mm
09:20 PM 66.9°F19.4°C 64.5°F18.1°C 92% Calm Calm -- 29.83 in1010.2 mb 0.00 in0.0 mm 0.00 in0.0 mm 0.17 in4.3 mm
09:25 PM 67.1°F19.5°C 64.7°F18.2°C 92% Calm Calm 2.0 mph3.2 kmh 29.83 in1010.2 mb 0.00 in0.0 mm 0.00 in0.0 mm 0.17 in4.3 mm
09:30 PM 67.3°F19.6°C 64.9°F18.3°C 92% Calm Calm 2.0 mph3.2 kmh 29.83 in1010.2 mb 0.00 in0.0 mm 0.00 in0.0 mm 0.17 in4.3 mm
09:35 PM 67.5°F19.7°C 64.7°F18.2°C 91% Calm Calm 3.0 mph4.8 kmh 29.83 in1010.2 mb 0.00 in0.0 mm 0.00 in0.0 mm 0.17 in4.3 mm
09:40 PM 67.5°F19.7°C 64.4°F18.0°C 90% 1.0 mph SSW1.6 kmh SSW 3.0 mph4.8 kmh 29.83 in1010.2 mb 0.00 in0.0 mm 0.00 in0.0 mm 0.17 in4.3 mm
09:45 PM 67.5°F19.7°C 64.1°F17.8°C 89% 1.0 mph SSW1.6 kmh SSW 4.0 mph6.4 kmh 29.83 in1010.2 mb 0.00 in0.0 mm 0.00 in0.0 mm 0.17 in4.3 mm
09:50 PM 67.6°F19.8°C 64.3°F17.9°C 89% 1.0 mph SSW1.6 kmh SSW 4.0 mph6.4 kmh 29.83 in1010.2 mb 0.00 in0.0 mm 0.00 in0.0 mm 0.17 in4.3 mm
09:55 PM 67.6°F19.8°C 64.3°F17.9°C 89% 1.0 mph WSW1.6 kmh WSW 3.0 mph4.8 kmh 29.84 in1010.5 mb 0.00 in0.0 mm 0.00 in0.0 mm 0.17 in4.3 mm
10:00 PM 67.5°F19.7°C 64.1°F17.8°C 89% Calm Calm 2.0 mph3.2 kmh 29.83 in1010.2 mb 0.00 in0.0 mm 0.00 in0.0 mm 0.17 in4.3 mm
10:05 PM 67.5°F19.7°C 64.1°F17.8°C 89% Calm Calm -- 29.84 in1010.5 mb 0.00 in0.0 mm 0.00 in0.0 mm 0.17 in4.3 mm
10:10 PM 67.3°F19.6°C 63.9°F17.7°C 89% Calm Calm 1.0 mph1.6 kmh 29.84 in1010.5 mb 0.00 in0.0 mm 0.00 in0.0 mm 0.17 in4.3 mm
10:15 PM 67.4°F19.7°C 63.7°F17.6°C 88% Calm Calm 2.0 mph3.2 kmh 29.84 in1010.5 mb 0.00 in0.0 mm 0.00 in0.0 mm 0.17 in4.3 mm
10:20 PM 67.3°F19.6°C 63.6°F17.6°C 88% Calm Calm 2.0 mph3.2 kmh 29.84 in1010.5 mb 0.00 in0.0 mm 0.00 in0.0 mm 0.17 in4.3 mm
10:25 PM 67.3°F19.6°C 63.6°F17.6°C 88% Calm Calm 1.0 mph1.6 kmh 29.84 in1010.5 mb 0.00 in0.0 mm 0.00 in0.0 mm 0.17 in4.3 mm
10:30 PM 67.3°F19.6°C 63.3°F17.4°C 87% Calm Calm 3.0 mph4.8 kmh 29.83 in1010.2 mb 0.00 in0.0 mm 0.00 in0.0 mm 0.17 in4.3 mm
10:35 PM 67.2°F19.6°C 63.2°F17.3°C 87% 1.0 mph SW1.6 kmh SW 3.0 mph4.8 kmh 29.83 in1010.2 mb 0.00 in0.0 mm 0.00 in0.0 mm 0.17 in4.3 mm
10:40 PM 67.3°F19.6°C 63.3°F17.4°C 87% 1.0 mph SW1.6 kmh SW 4.0 mph6.4 kmh 29.83 in1010.2 mb 0.00 in0.0 mm 0.00 in0.0 mm 0.17 in4.3 mm
10:45 PM 67.4°F19.7°C 63.4°F17.4°C 87% 2.0 mph SSW3.2 kmh SSW 5.0 mph8.0 kmh 29.84 in1010.5 mb 0.00 in0.0 mm 0.00 in0.0 mm 0.17 in4.3 mm
10:50 PM 67.4°F19.7°C 63.1°F17.3°C 86% 3.0 mph SW4.8 kmh SW 6.0 mph9.7 kmh 29.83 in1010.2 mb 0.00 in0.0 mm 0.00 in0.0 mm 0.17 in4.3 mm
10:55 PM 67.4°F19.7°C 63.4°F17.4°C 87% 3.0 mph SW4.8 kmh SW 6.0 mph9.7 kmh 29.83 in1010.2 mb 0.00 in0.0 mm 0.00 in0.0 mm 0.17 in4.3 mm
11:00 PM 67.3°F19.6°C 63.3°F17.4°C 87% 2.0 mph SW3.2 kmh SW 5.0 mph8.0 kmh 29.83 in1010.2 mb 0.00 in0.0 mm 0.00 in0.0 mm 0.17 in4.3 mm
11:05 PM 67.1°F19.5°C 63.1°F17.3°C 87% 2.0 mph SW3.2 kmh SW 5.0 mph8.0 kmh 29.83 in1010.2 mb 0.00 in0.0 mm 0.00 in0.0 mm 0.17 in4.3 mm
11:10 PM 66.9°F19.4°C 62.9°F17.2°C 87% 2.0 mph SW3.2 kmh SW 4.0 mph6.4 kmh 29.83 in1010.2 mb 0.00 in0.0 mm 0.00 in0.0 mm 0.17 in4.3 mm
11:15 PM 66.6°F19.2°C 62.6°F17.0°C 87% 1.0 mph SW1.6 kmh SW 2.0 mph3.2 kmh 29.83 in1010.2 mb 0.00 in0.0 mm 0.00 in0.0 mm 0.17 in4.3 mm
11:20 PM 66.3°F19.1°C 62.6°F17.0°C 88% Calm Calm 2.0 mph3.2 kmh 29.83 in1010.2 mb 0.00 in0.0 mm 0.00 in0.0 mm 0.17 in4.3 mm
11:25 PM 66.1°F18.9°C 62.4°F16.9°C 88% Calm Calm 2.0 mph3.2 kmh 29.83 in1010.2 mb 0.00 in0.0 mm 0.00 in0.0 mm 0.17 in4.3 mm
11:30 PM 65.7°F18.7°C 62.4°F16.9°C 89% Calm Calm 2.0 mph3.2 kmh 29.84 in1010.5 mb 0.00 in0.0 mm 0.00 in0.0 mm 0.17 in4.3 mm
11:35 PM 65.5°F18.6°C 62.2°F16.8°C 89% Calm Calm 2.0 mph3.2 kmh 29.84 in1010.5 mb 0.00 in0.0 mm 0.00 in0.0 mm 0.17 in4.3 mm
11:40 PM 65.5°F18.6°C 62.5°F16.9°C 90% Calm Calm 1.0 mph1.6 kmh 29.84 in1010.5 mb 0.00 in0.0 mm 0.00 in0.0 mm 0.17 in4.3 mm
11:45 PM 65.6°F18.7°C 62.6°F17.0°C 90% Calm Calm 2.0 mph3.2 kmh 29.84 in1010.5 mb 0.00 in0.0 mm 0.00 in0.0 mm 0.17 in4.3 mm
11:50 PM 65.7°F18.7°C 62.7°F17.1°C 90% Calm Calm 2.0 mph3.2 kmh 29.84 in1010.5 mb 0.00 in0.0 mm 0.00 in0.0 mm 0.17 in4.3 mm
11:55 PM 65.8°F18.8°C 62.5°F16.9°C 89% Calm Calm 2.0 mph3.2 kmh 29.84 in1010.5 mb 0.00 in0.0 mm 0.00 in0.0 mm 0.17 in4.3 mm